30°C Temp
18°C Dewpoint
49% Humidity
Temperature
19 KM/H
12 MPH
10 KTS
20°
North North
East

Wind Speed
Clear
Conditions
Pressure 1009.92 (hPa) - 29.82 (in)
Visibility 6.2 (mi) - 10.0 (km)

Current Conditions
LGAV
Location 35(km)
Metar :LGAV 241620Z 02010KT CAVOK 30/18 Q1010 NOSIG
Mon 24th June 19:20 pm

Airport
  Metar Aviation API Data Provided by https://www.checkwx.com/ PHP scripts by weather34.com ©2019